Time;durP1;ratioP1;P1;durP2;ratioP2;P2;SDS_P1;SDS_P2;PMS_P1;PMS_P2;Temp;Humidity;BMP_temperature;BMP_pressure;BME280_temperature;BME280_humidity;BME280_pressure;Samples;Min_cycle;Max_cycle;Signal;HPM_P1;HPM_P2
2022/10/19 00:01:17;;;;;;;4.20;1.50;;;;;;;;;;5046039;27;94946;-69
2022/10/19 00:03:44;;;;;;;3.47;1.55;;;;;;;;;;5035781;27;95790;-69
2022/10/19 00:06:10;;;;;;;4.43;1.52;;;;;;;;;;5039585;27;93431;-70
2022/10/19 00:08:37;;;;;;;4.28;1.77;;;;;;;;;;5050243;27;92541;-69
2022/10/19 00:11:03;;;;;;;5.03;1.70;;;;;;;;;;5031474;28;93074;-69
2022/10/19 00:13:29;;;;;;;2.35;1.75;;;;;;;;;;5042736;27;93171;-69
2022/10/19 00:15:56;;;;;;;2.28;1.58;;;;;;;;;;5028129;27;93693;-69
2022/10/19 00:18:22;;;;;;;2.70;1.17;;;;;;;;;;5042649;27;93075;-69
2022/10/19 00:20:48;;;;;;;3.28;1.70;;;;;;;;;;5041744;27;93713;-69
2022/10/19 00:23:14;;;;;;;3.92;1.52;;;;;;;;;;5037455;27;93398;-69
2022/10/19 00:25:41;;;;;;;3.47;1.58;;;;;;;;;;5038763;27;96129;-69
2022/10/19 00:28:07;;;;;;;4.28;1.48;;;;;;;;;;5046270;27;93100;-68
2022/10/19 00:30:37;;;;;;;2.83;1.70;;;;;;;;;;5037880;27;93129;-68
2022/10/19 00:33:03;;;;;;;1.50;1.40;;;;;;;;;;5036942;27;93298;-69
2022/10/19 00:35:29;;;;;;;2.97;1.50;;;;;;;;;;5039200;27;92539;-67
2022/10/19 00:37:56;;;;;;;2.15;1.45;;;;;;;;;;5046180;27;93115;-70
2022/10/19 00:40:22;;;;;;;2.20;1.30;;;;;;;;;;5038824;27;93727;-70
2022/10/19 00:42:53;;;;;;;3.28;1.63;;;;;;;;;;5040719;27;93064;-69
2022/10/19 00:45:19;;;;;;;1.98;1.45;;;;;;;;;;5033857;27;93434;-69
2022/10/19 00:47:45;;;;;;;3.03;1.45;;;;;;;;;;5033887;27;92501;-68
2022/10/19 00:50:13;;;;;;;4.93;1.17;;;;;;;;;;5038026;27;94938;-70
2022/10/19 00:52:39;;;;;;;3.72;1.60;;;;;;;;;;5035629;27;94722;-68
2022/10/19 00:55:06;;;;;;;2.05;1.23;;;;;;;;;;5049027;27;92998;-70
2022/10/19 00:57:32;;;;;;;2.35;1.45;;;;;;;;;;5052850;27;94243;-69
2022/10/19 01:00:00;;;;;;;3.28;1.23;;;;;;;;;;5037797;27;93429;-68
2022/10/19 01:02:26;;;;;;;4.15;1.40;;;;;;;;;;5039678;27;92471;-68
2022/10/19 01:04:52;;;;;;;2.30;1.63;;;;;;;;;;5040937;27;93502;-68
2022/10/19 01:07:19;;;;;;;2.42;1.80;;;;;;;;;;5034901;27;91767;-69
2022/10/19 01:09:45;;;;;;;4.60;1.25;;;;;;;;;;5036304;28;92588;-68
2022/10/19 01:12:14;;;;;;;1.55;1.40;;;;;;;;;;5038823;27;92592;-68
2022/10/19 01:14:46;;;;;;;2.53;1.42;;;;;;;;;;5038421;27;95114;-69
2022/10/19 01:17:15;;;;;;;3.25;1.63;;;;;;;;;;5041745;27;95987;-70
2022/10/19 01:20:00;;;;;;;2.38;1.33;;;;;;;;;;5047143;27;93377;-69
2022/10/19 01:22:45;;;;;;;4.00;1.50;;;;;;;;;;5035737;27;92471;-69
2022/10/19 01:25:19;;;;;;;2.25;1.45;;;;;;;;;;5027499;27;93133;-69
2022/10/19 01:27:48;;;;;;;1.92;1.20;;;;;;;;;;5039254;27;93480;-69
2022/10/19 01:30:30;;;;;;;2.13;1.30;;;;;;;;;;5052561;27;93887;-70
2022/10/19 01:33:10;;;;;;;2.47;1.40;;;;;;;;;;5027098;27;92707;-69
2022/10/19 01:35:39;;;;;;;2.42;1.30;;;;;;;;;;5048528;27;92444;-69
2022/10/19 01:38:19;;;;;;;1.60;1.30;;;;;;;;;;5044999;27;92602;-68
2022/10/19 01:40:46;;;;;;;;;;;;;;;;;;5052052;27;95957;-69
2022/10/19 01:43:19;;;;;;;2.00;1.38;;;;;;;;;;5037488;27;117471;-68
2022/10/19 01:45:51;;;;;;;2.45;1.40;;;;;;;;;;5030425;27;93322;-68
2022/10/19 01:48:20;;;;;;;1.48;1.15;;;;;;;;;;5032145;27;93422;-68
2022/10/19 01:50:53;;;;;;;1.52;1.30;;;;;;;;;;5058580;27;92525;-68
2022/10/19 01:53:20;;;;;;;3.33;1.25;;;;;;;;;;5041342;27;93424;-68
2022/10/19 01:55:48;;;;;;;5.93;1.20;;;;;;;;;;5017610;28;92543;-68
2022/10/19 01:58:16;;;;;;;1.58;1.20;;;;;;;;;;5043418;27;93185;-68
2022/10/19 02:00:44;;;;;;;1.20;1.10;;;;;;;;;;5047564;27;93656;-68
2022/10/19 02:03:11;;;;;;;6.63;1.75;;;;;;;;;;5041986;27;93294;-66
2022/10/19 02:05:39;;;;;;;2.22;1.48;;;;;;;;;;5036421;27;94819;-67
2022/10/19 02:08:09;;;;;;;2.10;1.20;;;;;;;;;;5018769;28;93717;-67
2022/10/19 02:10:36;;;;;;;2.05;1.30;;;;;;;;;;5050714;27;92446;-66
2022/10/19 02:13:03;;;;;;;2.33;1.35;;;;;;;;;;5052944;27;93452;-67
2022/10/19 02:15:33;;;;;;;1.40;1.30;;;;;;;;;;5048528;27;92477;-67
2022/10/19 02:18:00;;;;;;;2.45;1.35;;;;;;;;;;5045540;27;92413;-67
2022/10/19 02:20:27;;;;;;;2.30;1.23;;;;;;;;;;5047638;27;93461;-67
2022/10/19 02:22:53;;;;;;;1.35;1.00;;;;;;;;;;5049916;27;91762;-67
2022/10/19 02:25:20;;;;;;;1.98;1.30;;;;;;;;;;5045373;27;92731;-68
2022/10/19 02:27:46;;;;;;;1.77;1.30;;;;;;;;;;5041459;27;93346;-67
2022/10/19 02:30:14;;;;;;;3.05;1.20;;;;;;;;;;5036075;27;95195;-67
2022/10/19 02:32:41;;;;;;;3.58;1.23;;;;;;;;;;5028624;27;95484;-67
2022/10/19 02:35:07;;;;;;;2.33;1.13;;;;;;;;;;5054605;27;92534;-67
2022/10/19 02:37:33;;;;;;;3.88;1.27;;;;;;;;;;5038973;27;93112;-67
2022/10/19 02:40:05;;;;;;;1.02;0.82;;;;;;;;;;5049503;27;92431;-68
2022/10/19 02:42:37;;;;;;;2.35;1.20;;;;;;;;;;5046841;27;93708;-67
2022/10/19 02:45:04;;;;;;;1.85;1.40;;;;;;;;;;5037638;27;93138;-67
2022/10/19 02:47:32;;;;;;;1.40;1.00;;;;;;;;;;5051864;27;93715;-67
2022/10/19 02:49:58;;;;;;;5.95;1.20;;;;;;;;;;5054190;27;92553;-68
2022/10/19 02:52:25;;;;;;;9.48;1.33;;;;;;;;;;5033908;27;93245;-67
2022/10/19 02:54:51;;;;;;;2.90;1.15;;;;;;;;;;5035934;27;95835;-67
2022/10/19 02:57:19;;;;;;;9.45;1.10;;;;;;;;;;5024778;28;96003;-67
2022/10/19 02:59:45;;;;;;;1.23;1.10;;;;;;;;;;5035477;27;93384;-67
2022/10/19 03:02:12;;;;;;;1.15;0.93;;;;;;;;;;5025826;27;92523;-67
2022/10/19 03:04:40;;;;;;;1.27;1.17;;;;;;;;;;5035638;27;93343;-67
2022/10/19 03:07:10;;;;;;;2.90;1.10;;;;;;;;;;5044239;27;93513;-67
2022/10/19 03:09:36;;;;;;;1.10;1.00;;;;;;;;;;5042639;27;92416;-67
2022/10/19 03:12:02;;;;;;;1.30;1.20;;;;;;;;;;5042894;27;93124;-67
2022/10/19 03:14:29;;;;;;;0.90;0.90;;;;;;;;;;5030367;27;93376;-67
2022/10/19 03:16:55;;;;;;;2.75;1.30;;;;;;;;;;5054491;27;92478;-67
2022/10/19 03:19:21;;;;;;;1.58;1.00;;;;;;;;;;5033489;27;95898;-68
2022/10/19 03:21:47;;;;;;;2.58;1.23;;;;;;;;;;5020327;28;92409;-67
2022/10/19 03:24:14;;;;;;;9.80;1.40;;;;;;;;;;5043585;27;93132;-67
2022/10/19 03:26:40;;;;;;;1.33;1.08;;;;;;;;;;5037093;27;94975;-67
2022/10/19 03:29:06;;;;;;;1.92;1.20;;;;;;;;;;5029365;27;92508;-67
2022/10/19 03:31:33;;;;;;;1.73;1.10;;;;;;;;;;5051966;27;93213;-67
2022/10/19 03:33:59;;;;;;;4.65;1.30;;;;;;;;;;5041218;27;93739;-68
2022/10/19 03:36:29;;;;;;;2.30;1.27;;;;;;;;;;5033964;27;91738;-67
2022/10/19 03:38:55;;;;;;;;;;;;;;;;;;5035644;27;92708;-68
2022/10/19 03:41:22;;;;;;;2.50;1.02;;;;;;;;;;5052828;27;118469;-67
2022/10/19 03:43:49;;;;;;;1.23;1.13;;;;;;;;;;5047452;27;95997;-67
2022/10/19 03:46:15;;;;;;;2.55;1.33;;;;;;;;;;5041721;27;92532;-67
2022/10/19 03:48:42;;;;;;;1.50;1.17;;;;;;;;;;5037661;27;92806;-67
2022/10/19 03:51:27;;;;;;;1.55;1.00;;;;;;;;;;5032102;27;93124;-67
2022/10/19 03:53:55;;;;;;;4.35;1.02;;;;;;;;;;5056014;27;93740;-68
2022/10/19 03:56:22;;;;;;;2.08;1.30;;;;;;;;;;5033397;27;92641;-68
2022/10/19 03:58:49;;;;;;;1.48;1.20;;;;;;;;;;5033077;27;93164;-67
2022/10/19 04:01:17;;;;;;;1.00;1.00;;;;;;;;;;5052261;27;92704;-68
2022/10/19 04:03:43;;;;;;;1.02;0.90;;;;;;;;;;5056968;27;92816;-67
2022/10/19 04:06:12;;;;;;;1.27;0.93;;;;;;;;;;5047773;27;94406;-68
2022/10/19 04:08:42;;;;;;;1.52;0.90;;;;;;;;;;5036396;27;94838;-68
2022/10/19 04:11:13;;;;;;;2.05;1.08;;;;;;;;;;5036224;27;95493;-67
2022/10/19 04:13:40;;;;;;;1.52;0.90;;;;;;;;;;5037212;27;92429;-70
2022/10/19 04:16:06;;;;;;;3.42;0.98;;;;;;;;;;5048348;27;92485;-68
2022/10/19 04:18:32;;;;;;;9.38;1.40;;;;;;;;;;5055306;27;93123;-68
2022/10/19 04:21:00;;;;;;;0.68;0.68;;;;;;;;;;5058395;27;93509;-69
2022/10/19 04:23:27;;;;;;;1.77;1.20;;;;;;;;;;5029375;27;96293;-68
2022/10/19 04:26:04;;;;;;;1.63;1.00;;;;;;;;;;5056661;27;92705;-68
2022/10/19 04:28:30;;;;;;;1.95;0.90;;;;;;;;;;5053956;27;92529;-68
2022/10/19 04:30:56;;;;;;;1.00;1.00;;;;;;;;;;5036126;27;93581;-68
2022/10/19 04:33:22;;;;;;;0.90;0.80;;;;;;;;;;5034394;27;96070;-67
2022/10/19 04:35:49;;;;;;;0.88;0.88;;;;;;;;;;5040289;27;92525;-67
2022/10/19 04:38:15;;;;;;;0.80;0.80;;;;;;;;;;5039829;27;93107;-67
2022/10/19 04:40:41;;;;;;;3.58;1.20;;;;;;;;;;5048425;27;93373;-67
2022/10/19 04:43:07;;;;;;;1.40;0.90;;;;;;;;;;5050098;27;92372;-67
2022/10/19 04:45:34;;;;;;;2.53;1.15;;;;;;;;;;5057040;27;93459;-68
2022/10/19 04:48:00;;;;;;;1.92;0.90;;;;;;;;;;5036779;27;92577;-68
2022/10/19 04:50:27;;;;;;;1.70;0.90;;;;;;;;;;5053185;27;93064;-68
2022/10/19 04:52:53;;;;;;;2.47;1.10;;;;;;;;;;5038187;27;93555;-68
2022/10/19 04:55:19;;;;;;;3.78;1.27;;;;;;;;;;5043814;27;92449;-67
2022/10/19 04:57:45;;;;;;;3.17;0.88;;;;;;;;;;5048949;27;94879;-66
2022/10/19 05:00:12;;;;;;;4.95;1.10;;;;;;;;;;5045706;27;93445;-66
2022/10/19 05:02:41;;;;;;;1.10;1.00;;;;;;;;;;5043076;27;92769;-66
2022/10/19 05:05:08;;;;;;;1.52;1.08;;;;;;;;;;5053818;27;93466;-66
2022/10/19 05:07:34;;;;;;;2.05;1.02;;;;;;;;;;5036476;28;92558;-66
2022/10/19 05:10:01;;;;;;;3.28;1.00;;;;;;;;;;5042984;27;92548;-67
2022/10/19 05:12:27;;;;;;;2.58;0.82;;;;;;;;;;5036840;27;93845;-67
2022/10/19 05:14:53;;;;;;;1.50;0.98;;;;;;;;;;5041152;27;93573;-67
2022/10/19 05:17:19;;;;;;;1.77;1.02;;;;;;;;;;5037103;27;93450;-66
2022/10/19 05:19:45;;;;;;;5.47;1.00;;;;;;;;;;5036956;27;95585;-67
2022/10/19 05:22:12;;;;;;;1.75;1.17;;;;;;;;;;5030262;27;94902;-67
2022/10/19 05:24:38;;;;;;;0.95;0.82;;;;;;;;;;5040652;27;95658;-68
2022/10/19 05:27:04;;;;;;;2.28;1.13;;;;;;;;;;5041151;27;94411;-67
2022/10/19 05:29:32;;;;;;;1.15;0.93;;;;;;;;;;5021592;27;93162;-66
2022/10/19 05:31:58;;;;;;;2.92;1.20;;;;;;;;;;5049077;27;92496;-66
2022/10/19 05:34:25;;;;;;;3.70;1.08;;;;;;;;;;5044494;27;92498;-66
2022/10/19 05:36:53;;;;;;;5.40;1.10;;;;;;;;;;5023406;28;93921;-65
2022/10/19 05:39:20;;;;;;;3.05;0.98;;;;;;;;;;5037898;27;93023;-65
2022/10/19 05:41:46;;;;;;;4.57;0.98;;;;;;;;;;5047631;27;92539;-64
2022/10/19 05:44:13;;;;;;;2.75;1.00;;;;;;;;;;5028930;27;93160;-65
2022/10/19 05:46:40;;;;;;;9.32;1.27;;;;;;;;;;5027582;28;95805;-65
2022/10/19 05:49:06;;;;;;;3.13;1.42;;;;;;;;;;5048152;27;92959;-63
2022/10/19 05:51:32;;;;;;;13.20;1.20;;;;;;;;;;5046715;27;94367;-63
2022/10/19 05:53:58;;;;;;;1.75;0.80;;;;;;;;;;5045508;27;93949;-64
2022/10/19 05:56:26;;;;;;;2.08;0.98;;;;;;;;;;5025347;28;93151;-63
2022/10/19 05:58:54;;;;;;;7.97;1.25;;;;;;;;;;5022629;27;93754;-65
2022/10/19 06:01:20;;;;;;;1.30;0.98;;;;;;;;;;5042410;27;92443;-64
2022/10/19 06:03:49;;;;;;;6.35;1.20;;;;;;;;;;5031271;27;93493;-64
2022/10/19 06:06:15;;;;;;;5.47;1.10;;;;;;;;;;5025036;27;93448;-63
2022/10/19 06:08:42;;;;;;;2.05;1.20;;;;;;;;;;5048219;27;92512;-63
2022/10/19 06:11:12;;;;;;;4.28;1.30;;;;;;;;;;5046599;27;96093;-63
2022/10/19 06:13:39;;;;;;;3.20;0.90;;;;;;;;;;5038120;27;92571;-63
2022/10/19 06:16:07;;;;;;;3.05;1.42;;;;;;;;;;5046207;27;93121;-64
2022/10/19 06:18:33;;;;;;;2.85;1.00;;;;;;;;;;5053716;27;93546;-64
2022/10/19 06:21:00;;;;;;;7.57;1.20;;;;;;;;;;5044754;27;92511;-64
2022/10/19 06:23:26;;;;;;;8.32;1.13;;;;;;;;;;5047999;27;93025;-64
2022/10/19 06:25:53;;;;;;;1.25;1.10;;;;;;;;;;5041198;27;93607;-65
2022/10/19 06:28:19;;;;;;;1.70;1.00;;;;;;;;;;5027658;27;91824;-64
2022/10/19 06:30:45;;;;;;;1.95;1.02;;;;;;;;;;5034849;27;92458;-65
2022/10/19 06:33:12;;;;;;;2.58;1.10;;;;;;;;;;5048588;27;93582;-65
2022/10/19 06:35:41;;;;;;;0.80;0.77;;;;;;;;;;5042060;27;94952;-64
2022/10/19 06:38:07;;;;;;;1.85;0.90;;;;;;;;;;5047552;27;96248;-65
2022/10/19 06:40:34;;;;;;;3.63;1.05;;;;;;;;;;5051804;27;92476;-65
2022/10/19 06:43:01;;;;;;;2.97;0.82;;;;;;;;;;5051800;27;93597;-64
2022/10/19 06:45:27;;;;;;;1.17;0.80;;;;;;;;;;5042506;27;93520;-64
2022/10/19 06:48:00;;;;;;;3.28;1.30;;;;;;;;;;5025137;27;92665;-65
2022/10/19 06:50:31;;;;;;;2.58;0.90;;;;;;;;;;5043596;27;93380;-65
2022/10/19 06:52:58;;;;;;;3.83;0.90;;;;;;;;;;5053700;27;93027;-64
2022/10/19 06:55:24;;;;;;;6.35;0.88;;;;;;;;;;5042813;27;93189;-64
2022/10/19 06:57:51;;;;;;;3.53;1.10;;;;;;;;;;5053976;27;93404;-64
2022/10/19 07:00:17;;;;;;;5.82;1.10;;;;;;;;;;5052956;27;94911;-68
2022/10/19 07:02:43;;;;;;;11.68;1.52;;;;;;;;;;5047450;27;95539;-68
2022/10/19 07:05:09;;;;;;;2.33;1.13;;;;;;;;;;5054380;27;94456;-68
2022/10/19 07:07:36;;;;;;;5.03;1.63;;;;;;;;;;5053114;27;92493;-68
2022/10/19 07:10:03;;;;;;;6.07;1.50;;;;;;;;;;5053972;27;93083;-68
2022/10/19 07:12:29;;;;;;;11.00;1.35;;;;;;;;;;5041175;27;94791;-67
2022/10/19 07:14:56;;;;;;;6.65;1.50;;;;;;;;;;5040818;27;92453;-68
2022/10/19 07:17:23;;;;;;;7.45;1.42;;;;;;;;;;5038117;27;92642;-68
2022/10/19 07:19:49;;;;;;;7.78;1.73;;;;;;;;;;5057238;27;92561;-68
2022/10/19 07:22:15;;;;;;;10.23;1.60;;;;;;;;;;5034111;27;92701;-68
2022/10/19 07:24:51;;;;;;;3.75;1.20;;;;;;;;;;5048882;27;98437;-68
2022/10/19 07:27:17;;;;;;;3.85;1.60;;;;;;;;;;5033505;27;92599;-68
2022/10/19 07:29:43;;;;;;;5.38;1.70;;;;;;;;;;5053767;27;93122;-68
2022/10/19 07:32:09;;;;;;;7.22;1.45;;;;;;;;;;5040903;27;93497;-67
2022/10/19 07:34:36;;;;;;;5.28;1.80;;;;;;;;;;5054748;27;92443;-68
2022/10/19 07:37:02;;;;;;;4.88;1.85;;;;;;;;;;5043233;27;93188;-68
2022/10/19 07:39:28;;;;;;;4.90;1.40;;;;;;;;;;5029628;27;92484;-68
2022/10/19 07:41:54;;;;;;;8.02;1.55;;;;;;;;;;5039662;27;93514;-68
2022/10/19 07:44:21;;;;;;;8.40;1.17;;;;;;;;;;5046022;27;93414;-67
2022/10/19 07:46:47;;;;;;;8.02;1.55;;;;;;;;;;5033047;27;92774;-67
2022/10/19 07:49:15;;;;;;;8.50;1.65;;;;;;;;;;5027019;28;94768;-68
2022/10/19 07:51:41;;;;;;;4.55;1.60;;;;;;;;;;5033582;27;93431;-67
2022/10/19 07:54:07;;;;;;;10.77;1.70;;;;;;;;;;5017770;28;94204;-67
2022/10/19 07:56:34;;;;;;;13.23;1.85;;;;;;;;;;5034988;27;93346;-68
2022/10/19 07:59:00;;;;;;;10.27;1.80;;;;;;;;;;5042746;27;93483;-67
2022/10/19 08:01:34;;;;;;;5.95;1.67;;;;;;;;;;5035645;27;93506;-67
2022/10/19 08:04:00;;;;;;;5.13;1.60;;;;;;;;;;5047069;27;93440;-67
2022/10/19 08:06:47;;;;;;;8.90;2.25;;;;;;;;;;5019250;28;91702;-67
2022/10/19 08:09:13;;;;;;;10.85;1.75;;;;;;;;;;5034006;28;92526;-68
2022/10/19 08:11:59;;;;;;;6.30;1.70;;;;;;;;;;5048522;27;93959;-68
2022/10/19 08:14:26;;;;;;;13.68;1.67;;;;;;;;;;5041196;27;94893;-68
2022/10/19 08:16:52;;;;;;;4.93;1.50;;;;;;;;;;5020220;28;95637;-68
2022/10/19 08:19:18;;;;;;;8.70;1.30;;;;;;;;;;5033701;28;93444;-68
2022/10/19 08:21:45;;;;;;;8.52;1.60;;;;;;;;;;5038496;27;92487;-67
2022/10/19 08:24:12;;;;;;;11.95;1.52;;;;;;;;;;5034448;27;93756;-67
2022/10/19 08:26:39;;;;;;;12.02;1.70;;;;;;;;;;5037606;27;92592;-67
2022/10/19 08:29:13;;;;;;;13.13;1.65;;;;;;;;;;5056810;27;94289;-67
2022/10/19 08:31:40;;;;;;;4.32;1.60;;;;;;;;;;5046368;27;93061;-67
2022/10/19 08:34:06;;;;;;;5.95;1.48;;;;;;;;;;5027382;28;92455;-68
2022/10/19 08:36:34;;;;;;;7.03;1.40;;;;;;;;;;5055254;27;93440;-67
2022/10/19 08:39:01;;;;;;;6.38;1.90;;;;;;;;;;5055124;27;95853;-67
2022/10/19 08:41:32;;;;;;;4.18;1.60;;;;;;;;;;5060071;27;92490;-67
2022/10/19 08:43:58;;;;;;;;;;;;;;;;;;5050503;27;93873;-67
2022/10/19 08:46:34;;;;;;;5.72;1.38;;;;;;;;;;5049397;27;118408;-67
2022/10/19 08:49:01;;;;;;;6.22;1.60;;;;;;;;;;5047023;27;93114;-67
2022/10/19 08:51:32;;;;;;;11.82;1.48;;;;;;;;;;5036286;28;93359;-66
2022/10/19 08:53:59;;;;;;;5.80;1.63;;;;;;;;;;5038568;27;92541;-69
2022/10/19 08:56:29;;;;;;;7.95;1.33;;;;;;;;;;5038558;27;93146;-65
2022/10/19 08:59:20;;;;;;;10.20;1.70;;;;;;;;;;5036752;28;92414;-65
2022/10/19 09:02:10;;;;;;;7.70;1.52;;;;;;;;;;5036295;27;92420;-65
2022/10/19 09:04:38;;;;;;;4.63;1.52;;;;;;;;;;5033042;27;94909;-65
2022/10/19 09:07:17;;;;;;;6.13;1.23;;;;;;;;;;5034584;27;92552;-65
2022/10/19 09:09:47;;;;;;;10.23;1.90;;;;;;;;;;5039496;27;93450;-65
2022/10/19 09:12:16;;;;;;;6.45;1.45;;;;;;;;;;5038269;27;93467;-66
2022/10/19 09:14:50;;;;;;;3.60;1.25;;;;;;;;;;5042498;27;92465;-66
2022/10/19 09:17:16;;;;;;;12.57;2.00;;;;;;;;;;5034461;27;93119;-66
2022/10/19 09:19:43;;;;;;;3.83;1.30;;;;;;;;;;5056800;27;93471;-65
2022/10/19 09:22:12;;;;;;;7.57;1.42;;;;;;;;;;5056128;27;91744;-65
2022/10/19 09:24:42;;;;;;;9.95;1.50;;;;;;;;;;5046320;27;93838;-65
2022/10/19 09:27:35;;;;;;;10.77;1.85;;;;;;;;;;5035352;27;93420;-65
2022/10/19 09:30:03;;;;;;;5.57;1.55;;;;;;;;;;5049525;27;94861;-65
2022/10/19 09:32:31;;;;;;;7.60;1.77;;;;;;;;;;5038439;27;93419;-65
2022/10/19 09:35:03;;;;;;;8.68;1.92;;;;;;;;;;5019763;28;92611;-64
2022/10/19 09:37:30;;;;;;;6.05;1.67;;;;;;;;;;5024476;28;93423;-65
2022/10/19 09:39:57;;;;;;;6.78;2.05;;;;;;;;;;5035752;28;93774;-65
2022/10/19 09:42:31;;;;;;;6.32;1.33;;;;;;;;;;4996747;28;92606;-65
2022/10/19 09:45:00;;;;;;;7.32;1.55;;;;;;;;;;4996513;28;92984;-65
2022/10/19 09:47:52;;;;;;;5.38;1.98;;;;;;;;;;5003256;28;92213;-65
2022/10/19 09:50:20;;;;;;;4.55;1.30;;;;;;;;;;5009928;28;92470;-65
2022/10/19 09:52:48;;;;;;;4.53;1.58;;;;;;;;;;5015661;28;93484;-65
2022/10/19 09:55:28;;;;;;;3.75;1.52;;;;;;;;;;5013095;28;94911;-65
2022/10/19 09:57:58;;;;;;;6.13;1.67;;;;;;;;;;4999439;28;95592;-65
2022/10/19 10:00:31;;;;;;;6.07;1.55;;;;;;;;;;5011096;28;93438;-65
2022/10/19 10:02:57;;;;;;;2.65;1.08;;;;;;;;;;5015748;28;92509;-65
2022/10/19 10:05:38;;;;;;;8.18;1.67;;;;;;;;;;5008862;28;93863;-65
2022/10/19 10:08:12;;;;;;;6.40;1.50;;;;;;;;;;4995265;28;93426;-65
2022/10/19 10:10:42;;;;;;;5.50;1.15;;;;;;;;;;4995857;28;92494;-65
2022/10/19 10:13:14;;;;;;;6.10;1.63;;;;;;;;;;4999258;28;93116;-65
2022/10/19 10:15:42;;;;;;;8.45;1.50;;;;;;;;;;4999187;28;92414;-65
2022/10/19 10:18:13;;;;;;;6.57;1.35;;;;;;;;;;4996889;28;93850;-65
2022/10/19 10:20:54;;;;;;;2.78;1.00;;;;;;;;;;4993731;28;95788;-64
2022/10/19 10:23:22;;;;;;;6.55;1.33;;;;;;;;;;4996794;28;92452;-65
2022/10/19 10:25:48;;;;;;;3.33;1.20;;;;;;;;;;5007493;28;93158;-66
2022/10/19 10:28:20;;;;;;;6.00;1.17;;;;;;;;;;4996173;28;93752;-65
2022/10/19 10:30:47;;;;;;;5.10;1.40;;;;;;;;;;4995163;28;92564;-66
2022/10/19 10:33:14;;;;;;;4.72;1.48;;;;;;;;;;5010374;28;93154;-65
2022/10/19 10:36:03;;;;;;;6.55;1.30;;;;;;;;;;5004512;28;92466;-65
2022/10/19 10:38:32;;;;;;;2.13;1.00;;;;;;;;;;4996162;28;93172;-65
2022/10/19 10:41:09;;;;;;;5.45;1.00;;;;;;;;;;5006534;27;93808;-65
2022/10/19 10:43:38;;;;;;;5.07;1.20;;;;;;;;;;5042823;27;92518;-65
2022/10/19 10:46:13;;;;;;;3.93;1.47;;;;;;;;;;5050747;27;94804;-65
2022/10/19 10:48:43;;;;;;;3.78;0.85;;;;;;;;;;5034636;27;93474;-65
2022/10/19 10:51:18;;;;;;;2.90;0.98;;;;;;;;;;5044838;27;93374;-66
2022/10/19 10:53:45;;;;;;;4.35;0.90;;;;;;;;;;5035321;27;93520;-65
2022/10/19 10:56:22;;;;;;;3.45;1.20;;;;;;;;;;5035829;27;93602;-66
2022/10/19 10:58:51;;;;;;;6.03;1.05;;;;;;;;;;5034974;27;94561;-65
2022/10/19 11:01:20;;;;;;;5.43;1.17;;;;;;;;;;5037407;27;93553;-65
2022/10/19 11:03:50;;;;;;;7.03;1.30;;;;;;;;;;5019711;27;91764;-67
2022/10/19 11:06:17;;;;;;;3.70;1.00;;;;;;;;;;5015909;27;93741;-66
2022/10/19 11:08:49;;;;;;;1.98;0.75;;;;;;;;;;5051771;27;93542;-65
2022/10/19 11:11:19;;;;;;;9.95;0.90;;;;;;;;;;5034133;27;94890;-66
2022/10/19 11:13:57;;;;;;;4.03;0.90;;;;;;;;;;5021734;27;94134;-65
2022/10/19 11:16:33;;;;;;;6.70;1.35;;;;;;;;;;5035942;27;93611;-65
2022/10/19 11:19:04;;;;;;;4.03;1.20;;;;;;;;;;5019727;28;92431;-66
2022/10/19 11:21:31;;;;;;;5.93;1.00;;;;;;;;;;5037353;27;93729;-65
2022/10/19 11:24:15;;;;;;;10.10;1.20;;;;;;;;;;5037030;27;92579;-65
2022/10/19 11:26:53;;;;;;;3.67;0.90;;;;;;;;;;5050329;27;93437;-66
2022/10/19 11:29:38;;;;;;;3.50;1.25;;;;;;;;;;5045926;27;93008;-66
2022/10/19 11:32:09;;;;;;;7.32;1.00;;;;;;;;;;5038799;27;92568;-66
2022/10/19 11:34:54;;;;;;;3.33;0.93;;;;;;;;;;5044915;27;93111;-66
2022/10/19 11:37:21;;;;;;;3.50;1.08;;;;;;;;;;5044465;27;96134;-66
2022/10/19 11:39:56;;;;;;;2.92;1.02;;;;;;;;;;5054633;27;92463;-66
2022/10/19 11:42:39;;;;;;;3.97;0.70;;;;;;;;;;5002897;28;93416;-66
2022/10/19 11:45:24;;;;;;;3.53;0.90;;;;;;;;;;4999844;28;92528;-66
2022/10/19 11:47:59;;;;;;;4.82;1.05;;;;;;;;;;5004890;28;92518;-66
2022/10/19 11:50:25;;;;;;;2.25;0.90;;;;;;;;;;5014214;28;93465;-66
2022/10/19 11:52:57;;;;;;;5.47;1.23;;;;;;;;;;5007549;28;92462;-66
2022/10/19 11:55:32;;;;;;;4.20;1.10;;;;;;;;;;5008920;28;93528;-66
2022/10/19 11:58:16;;;;;;;7.50;1.27;;;;;;;;;;5013464;28;93747;-66
2022/10/19 12:00:48;;;;;;;4.43;0.85;;;;;;;;;;5014305;28;92450;-66
2022/10/19 12:03:15;;;;;;;3.35;0.93;;;;;;;;;;5009755;28;95155;-67
2022/10/19 12:05:58;;;;;;;3.85;1.13;;;;;;;;;;5019845;28;94686;-66
2022/10/19 12:08:36;;;;;;;4.00;0.80;;;;;;;;;;5016404;28;93126;-66
2022/10/19 12:11:03;;;;;;;3.38;0.80;;;;;;;;;;5015934;28;93781;-66
2022/10/19 12:13:39;;;;;;;4.53;0.88;;;;;;;;;;5010401;28;92574;-66
2022/10/19 12:16:07;;;;;;;4.60;1.17;;;;;;;;;;5007351;28;92990;-67
2022/10/19 12:18:36;;;;;;;5.97;1.38;;;;;;;;;;4998059;28;93751;-66
2022/10/19 12:21:13;;;;;;;6.18;1.38;;;;;;;;;;4997079;28;91802;-66
2022/10/19 12:23:43;;;;;;;6.10;1.00;;;;;;;;;;4997341;28;92777;-66
2022/10/19 12:26:13;;;;;;;2.67;1.13;;;;;;;;;;4996932;28;93350;-66
2022/10/19 12:28:39;;;;;;;;;;;;;;;;;;5015094;28;94910;-66
2022/10/19 12:31:06;;;;;;;5.57;1.02;;;;;;;;;;5017853;28;124280;-66
2022/10/19 12:33:35;;;;;;;4.65;1.10;;;;;;;;;;5008021;28;92470;-67
2022/10/19 12:36:04;;;;;;;3.13;1.00;;;;;;;;;;4996110;28;93228;-66
2022/10/19 12:38:41;;;;;;;3.97;1.07;;;;;;;;;;4998638;28;93783;-66
2022/10/19 12:41:20;;;;;;;6.40;1.77;;;;;;;;;;5011692;28;92438;-66
2022/10/19 12:44:02;;;;;;;7.47;1.65;;;;;;;;;;5045592;27;94856;-66
2022/10/19 12:46:29;;;;;;;3.95;0.93;;;;;;;;;;5048042;27;92953;-66
2022/10/19 12:49:27;;;;;;;4.60;1.20;;;;;;;;;;5040124;28;92529;-66
2022/10/19 12:51:54;;;;;;;2.50;0.82;;;;;;;;;;5036624;28;92448;-67
2022/10/19 12:54:24;;;;;;;4.38;1.08;;;;;;;;;;5037136;27;95103;-66
2022/10/19 12:56:52;;;;;;;2.10;0.90;;;;;;;;;;5055491;27;95794;-67
2022/10/19 12:59:26;;;;;;;3.63;1.20;;;;;;;;;;5056937;27;93491;-67
2022/10/19 13:01:52;;;;;;;5.78;1.13;;;;;;;;;;5056880;27;92446;-66
2022/10/19 13:04:23;;;;;;;4.57;1.35;;;;;;;;;;5040885;27;93650;-66
2022/10/19 13:06:50;;;;;;;5.72;1.50;;;;;;;;;;5024611;27;94056;-66
2022/10/19 13:09:35;;;;;;;6.20;1.80;;;;;;;;;;5032197;28;92955;-66
2022/10/19 13:12:13;;;;;;;6.88;1.38;;;;;;;;;;5039739;28;93113;-66
2022/10/19 13:14:54;;;;;;;6.55;1.38;;;;;;;;;;5038348;27;92587;-67
2022/10/19 13:17:36;;;;;;;8.70;1.52;;;;;;;;;;5029448;27;94457;-65
2022/10/19 13:20:14;;;;;;;4.53;1.52;;;;;;;;;;5034620;28;96424;-65
2022/10/19 13:22:45;;;;;;;6.15;1.48;;;;;;;;;;5018688;27;92484;-67
2022/10/19 13:25:11;;;;;;;;;;;;;;;;;;5034224;27;93412;-66
2022/10/19 13:27:37;;;;;;;6.53;1.67;;;;;;;;;;5019354;28;124241;-66
2022/10/19 13:30:05;;;;;;;2.47;0.90;;;;;;;;;;5036752;28;92444;-66
2022/10/19 13:32:44;;;;;;;3.50;1.20;;;;;;;;;;5035967;27;93522;-67
2022/10/19 13:35:31;;;;;;;5.00;1.10;;;;;;;;;;5039799;28;94152;-66
2022/10/19 13:38:14;;;;;;;3.03;1.00;;;;;;;;;;5036054;27;93121;-66
2022/10/19 13:40:55;;;;;;;4.88;0.98;;;;;;;;;;5035776;28;93407;-66
2022/10/19 13:43:23;;;;;;;3.47;1.10;;;;;;;;;;5036114;27;92524;-66
2022/10/19 13:45:53;;;;;;;10.85;1.38;;;;;;;;;;5038034;27;95006;-66
2022/10/19 13:48:48;;;;;;;3.72;1.00;;;;;;;;;;5036232;28;94507;-66
2022/10/19 13:51:24;;;;;;;4.72;1.10;;;;;;;;;;4954164;28;92575;-66
2022/10/19 13:53:50;;;;;;;3.10;1.00;;;;;;;;;;4972860;28;93282;-66
2022/10/19 13:56:22;;;;;;;3.70;1.15;;;;;;;;;;4972547;28;93788;-66
2022/10/19 13:59:05;;;;;;;4.13;1.13;;;;;;;;;;4976966;28;92550;-66
2022/10/19 14:01:34;;;;;;;2.67;0.77;;;;;;;;;;4971779;28;93424;-66
2022/10/19 14:04:18;;;;;;;3.47;1.00;;;;;;;;;;4973949;28;92289;-65
2022/10/19 14:06:56;;;;;;;4.95;1.50;;;;;;;;;;4954204;28;92576;-66
2022/10/19 14:09:32;;;;;;;5.07;0.90;;;;;;;;;;4961281;28;93417;-67
2022/10/19 14:12:05;;;;;;;5.00;0.98;;;;;;;;;;4971448;28;95366;-66
2022/10/19 14:14:37;;;;;;;5.90;1.33;;;;;;;;;;4973298;28;96906;-67
2022/10/19 14:17:14;;;;;;;5.30;0.88;;;;;;;;;;4971283;28;93447;-66
2022/10/19 14:19:42;;;;;;;4.95;1.17;;;;;;;;;;4962320;28;94254;-66
2022/10/19 14:22:32;;;;;;;5.97;0.85;;;;;;;;;;4940715;28;93472;-66
2022/10/19 14:25:04;;;;;;;3.97;1.20;;;;;;;;;;4937746;28;92540;-65
2022/10/19 14:27:30;;;;;;;7.00;1.25;;;;;;;;;;4993133;28;93209;-66
2022/10/19 14:29:57;;;;;;;3.67;1.00;;;;;;;;;;5035724;28;92687;-65
2022/10/19 14:32:25;;;;;;;4.95;0.98;;;;;;;;;;5035330;27;92343;-66
2022/10/19 14:34:52;;;;;;;7.55;1.45;;;;;;;;;;5035171;28;93576;-65
2022/10/19 14:37:20;;;;;;;3.90;1.05;;;;;;;;;;5026090;27;95680;-67
2022/10/19 14:39:57;;;;;;;8.27;0.98;;;;;;;;;;5037355;27;92620;-66
2022/10/19 14:42:23;;;;;;;3.35;1.10;;;;;;;;;;5055203;27;93360;-66
2022/10/19 14:44:49;;;;;;;6.75;1.13;;;;;;;;;;5057142;27;93448;-67
2022/10/19 14:47:20;;;;;;;4.88;1.38;;;;;;;;;;5048011;27;93108;-67
2022/10/19 14:49:46;;;;;;;5.63;1.15;;;;;;;;;;5054979;27;93577;-67
2022/10/19 14:52:21;;;;;;;4.93;1.20;;;;;;;;;;5036319;27;92446;-66
2022/10/19 14:54:51;;;;;;;4.85;0.98;;;;;;;;;;5044582;27;94274;-67
2022/10/19 14:57:28;;;;;;;8.53;1.30;;;;;;;;;;5016914;28;93493;-67
2022/10/19 14:59:57;;;;;;;8.73;1.30;;;;;;;;;;5034612;28;92530;-67